createdAt,value
2023-03-16T00:00:43.218Z,100845.28
2023-03-16T00:03:10.592Z,100839.16
2023-03-16T00:05:37.691Z,100842.25
2023-03-16T00:08:06.322Z,100842.28
2023-03-16T00:10:33.126Z,100829.72
2023-03-16T00:13:00.030Z,100824.28
2023-03-16T00:15:26.768Z,100826.06
2023-03-16T00:17:53.942Z,100836.69
2023-03-16T00:20:20.613Z,100825.13
2023-03-16T00:22:47.312Z,100826.81
2023-03-16T00:25:14.859Z,100825.97
2023-03-16T00:27:41.646Z,100826.50
2023-03-16T00:30:08.909Z,100822.03
2023-03-16T00:32:38.088Z,100814.44
2023-03-16T00:35:06.749Z,100808.81
2023-03-16T00:37:35.339Z,100806.00
2023-03-16T00:40:02.109Z,100800.69
2023-03-16T00:42:29.757Z,100800.69
2023-03-16T00:44:57.734Z,100807.16
2023-03-16T00:47:28.749Z,100793.41
2023-03-16T00:49:55.990Z,100783.34
2023-03-16T00:52:23.788Z,100787.28
2023-03-16T00:54:53.759Z,100779.19
2023-03-16T00:57:21.804Z,100767.44
2023-03-16T00:59:49.194Z,100765.78
2023-03-16T01:02:17.534Z,100760.75
2023-03-16T01:04:44.280Z,100746.53
2023-03-16T01:07:13.095Z,100749.88
2023-03-16T01:09:41.163Z,100739.88
2023-03-16T01:12:09.231Z,100735.41
2023-03-16T01:14:36.477Z,100732.09
2023-03-16T01:17:03.586Z,100733.44
2023-03-16T01:19:34.371Z,100728.78
2023-03-16T01:22:02.277Z,100734.81
2023-03-16T01:24:29.119Z,100733.25
2023-03-16T01:26:56.081Z,100715.88
2023-03-16T01:29:22.789Z,100713.72
2023-03-16T01:31:50.656Z,100716.03
2023-03-16T01:34:18.847Z,100700.09
2023-03-16T01:36:48.568Z,100692.63
2023-03-16T01:39:16.980Z,100684.50
2023-03-16T01:41:44.594Z,100688.53
2023-03-16T01:44:13.464Z,100691.44
2023-03-16T01:46:42.099Z,100705.56
2023-03-16T01:49:12.555Z,100689.38
2023-03-16T01:51:53.261Z,100696.22
2023-03-16T01:54:29.060Z,100683.03
2023-03-16T01:57:06.832Z,100675.88
2023-03-16T01:59:37.853Z,100668.06
2023-03-16T02:02:05.524Z,100672.34
2023-03-16T02:04:37.153Z,100659.75
2023-03-16T02:07:05.577Z,100653.97
2023-03-16T02:09:33.637Z,100652.28
2023-03-16T02:12:01.664Z,100652.28
2023-03-16T02:14:28.300Z,100635.47
2023-03-16T02:16:56.275Z,100652.63
2023-03-16T02:19:28.335Z,100636.94
2023-03-16T02:22:06.697Z,100630.78
2023-03-16T02:24:33.848Z,100631.97
2023-03-16T02:27:21.801Z,100610.66
2023-03-16T02:29:53.055Z,100623.84
2023-03-16T02:32:20.887Z,100628.13
2023-03-16T02:34:47.861Z,100628.41
2023-03-16T02:37:14.581Z,100624.25
2023-03-16T02:39:44.414Z,100607.75
2023-03-16T02:42:13.929Z,100601.94
2023-03-16T02:44:43.988Z,100615.44
2023-03-16T02:47:15.099Z,100612.94
2023-03-16T02:49:44.147Z,100597.28
2023-03-16T02:52:11.378Z,100607.41
2023-03-16T02:54:38.570Z,100599.00
2023-03-16T02:57:05.518Z,100586.47
2023-03-16T02:59:32.223Z,100581.16
2023-03-16T03:01:58.980Z,100592.38
2023-03-16T03:04:25.835Z,100587.38
2023-03-16T03:06:52.695Z,100585.69
2023-03-16T03:09:19.966Z,100582.06
2023-03-16T03:11:47.154Z,100573.16
2023-03-16T03:14:17.014Z,100568.69
2023-03-16T03:16:47.047Z,100567.00
2023-03-16T03:19:14.519Z,100558.41
2023-03-16T03:21:41.495Z,100560.91
2023-03-16T03:24:08.961Z,100561.22
2023-03-16T03:26:38.255Z,100565.97
2023-03-16T03:29:05.181Z,100562.13
2023-03-16T03:31:32.290Z,100559.63
2023-03-16T03:33:59.152Z,100554.03
2023-03-16T03:36:25.933Z,100556.00
2023-03-16T03:38:55.072Z,100552.41
2023-03-16T03:41:22.718Z,100553.00
2023-03-16T03:43:49.536Z,100558.09
2023-03-16T03:46:16.364Z,100552.50
2023-03-16T03:48:43.203Z,100561.19
2023-03-16T03:51:14.250Z,100559.53
2023-03-16T03:53:41.459Z,100553.41
2023-03-16T03:56:08.251Z,100548.94
2023-03-16T03:58:35.021Z,100561.28
2023-03-16T04:01:09.303Z,100554.00
2023-03-16T04:03:36.080Z,100547.56
2023-03-16T04:06:02.979Z,100545.13
2023-03-16T04:08:29.740Z,100549.34
2023-03-16T04:10:56.507Z,100548.50
2023-03-16T04:13:25.857Z,100546.03
2023-03-16T04:15:59.518Z,100554.44
2023-03-16T04:18:26.399Z,100547.16
2023-03-16T04:20:55.858Z,100545.84
2023-03-16T04:23:22.643Z,100539.41
2023-03-16T04:25:50.500Z,100536.06
2023-03-16T04:28:18.161Z,100536.34
2023-03-16T04:30:44.974Z,100541.97
2023-03-16T04:33:13.222Z,100540.00
2023-03-16T04:35:40.027Z,100539.78
2023-03-16T04:38:06.830Z,100538.94
2023-03-16T04:40:33.594Z,100533.69
2023-03-16T04:43:00.290Z,100530.03
2023-03-16T04:45:27.127Z,100538.75
2023-03-16T04:47:53.795Z,100534.28
2023-03-16T04:50:20.650Z,100536.25
2023-03-16T04:52:47.328Z,100535.41
2023-03-16T04:55:14.060Z,100531.25
2023-03-16T04:57:40.779Z,100529.31
2023-03-16T05:00:12.178Z,100525.66
2023-03-16T05:02:39.229Z,100521.41
2023-03-16T05:05:06.352Z,100518.09
2023-03-16T05:07:33.455Z,100521.19
2023-03-16T05:10:00.256Z,100523.50
2023-03-16T05:12:27.152Z,100512.88
2023-03-16T05:14:53.946Z,100514.34
2023-03-16T05:17:20.751Z,100520.16
2023-03-16T05:19:47.572Z,100514.34
2023-03-16T05:22:14.987Z,100511.84
2023-03-16T05:24:43.394Z,100515.47
2023-03-16T05:27:10.498Z,100509.38
2023-03-16T05:29:37.230Z,100507.72
2023-03-16T05:32:04.110Z,100508.00
2023-03-16T05:34:31.954Z,100512.47
2023-03-16T05:36:59.904Z,100503.03
2023-03-16T05:39:26.739Z,100504.69
2023-03-16T05:41:55.311Z,100504.16
2023-03-16T05:44:22.048Z,100506.97
2023-03-16T05:46:48.796Z,100501.66
2023-03-16T05:49:16.309Z,100495.56
2023-03-16T05:51:43.198Z,100499.50
2023-03-16T05:54:10.004Z,100504.25
2023-03-16T05:56:36.872Z,100512.56
2023-03-16T05:59:03.686Z,100503.25
2023-03-16T06:01:30.374Z,100506.38
2023-03-16T06:03:57.258Z,100505.97
2023-03-16T06:06:24.049Z,100495.19
2023-03-16T06:08:51.096Z,100496.22
2023-03-16T06:11:17.882Z,100494.50
2023-03-16T06:13:44.594Z,100495.53
2023-03-16T06:16:14.032Z,100497.72
2023-03-16T06:18:41.393Z,100498.75
2023-03-16T06:21:13.918Z,100496.16
2023-03-16T06:23:41.364Z,100489.63
2023-03-16T06:26:08.057Z,100496.59
2023-03-16T06:28:35.015Z,100489.22
2023-03-16T06:31:07.559Z,100482.97
2023-03-16T06:33:34.310Z,100494.38
2023-03-16T06:36:02.058Z,100490.16
2023-03-16T06:38:29.414Z,100488.72
2023-03-16T06:40:56.210Z,100490.06
2023-03-16T06:43:22.940Z,100492.25
2023-03-16T06:45:49.719Z,100498.38
2023-03-16T06:48:16.537Z,100505.31
2023-03-16T06:50:45.279Z,100505.84
2023-03-16T06:53:12.015Z,100500.25
2023-03-16T06:55:39.869Z,100504.38
2023-03-16T06:58:06.845Z,100496.78
2023-03-16T07:00:34.364Z,100503.75
2023-03-16T07:03:02.268Z,100510.72
2023-03-16T07:05:29.389Z,100508.72
2023-03-16T07:07:56.076Z,100509.56
2023-03-16T07:10:22.849Z,100505.59
2023-03-16T07:12:50.638Z,100504.47
2023-03-16T07:15:17.472Z,100502.50
2023-03-16T07:17:44.535Z,100502.19
2023-03-16T07:20:11.728Z,100494.63
2023-03-16T07:22:39.727Z,100501.06
2023-03-16T07:25:07.458Z,100495.44
2023-03-16T07:27:34.170Z,100479.78
2023-03-16T07:30:03.407Z,100487.84
2023-03-16T07:32:31.078Z,100489.50
2023-03-16T07:34:59.310Z,100481.09
2023-03-16T07:37:26.672Z,100479.66
2023-03-16T07:39:53.538Z,100475.69
2023-03-16T07:42:20.290Z,100465.72
2023-03-16T07:44:47.083Z,100461.44
2023-03-16T07:47:15.007Z,100453.56
2023-03-16T07:49:45.647Z,100466.94
2023-03-16T07:52:14.019Z,100462.03
2023-03-16T07:54:41.164Z,100465.03
2023-03-16T07:57:08.575Z,100462.94
2023-03-16T07:59:35.441Z,100477.69
2023-03-16T08:02:02.985Z,100481.50
2023-03-16T08:04:30.157Z,100483.66
2023-03-16T08:07:00.505Z,100488.63
2023-03-16T08:09:27.909Z,100491.66
2023-03-16T08:11:54.910Z,100490.75
2023-03-16T08:14:21.809Z,100499.03
2023-03-16T08:16:48.566Z,100507.63
2023-03-16T08:19:15.488Z,100505.00
2023-03-16T08:22:00.348Z,100503.53
2023-03-16T08:24:30.685Z,100501.44
2023-03-16T08:26:58.245Z,100501.97
2023-03-16T08:29:27.064Z,100510.88
2023-03-16T08:31:56.592Z,100501.31
2023-03-16T08:34:24.409Z,100494.88
2023-03-16T08:36:51.184Z,100503.63
2023-03-16T08:39:18.016Z,100487.59
2023-03-16T08:41:46.121Z,100495.06
2023-03-16T08:44:13.348Z,100488.81
2023-03-16T08:46:40.982Z,100497.50
2023-03-16T08:49:09.088Z,100491.78
2023-03-16T08:51:35.973Z,100495.91
2023-03-16T08:54:02.881Z,100506.53
2023-03-16T08:56:30.772Z,100500.78
2023-03-16T08:58:57.882Z,100510.88
2023-03-16T09:01:25.947Z,100501.31
2023-03-16T09:03:53.094Z,100502.16
2023-03-16T09:06:20.159Z,100498.19
2023-03-16T09:08:48.995Z,100492.59
2023-03-16T09:11:18.025Z,100486.44
2023-03-16T09:13:44.972Z,100479.19
2023-03-16T09:16:12.678Z,100472.72
2023-03-16T09:18:40.140Z,100478.34
2023-03-16T09:21:13.996Z,100470.75
2023-03-16T09:23:42.961Z,100475.31
2023-03-16T09:26:10.446Z,100477.28
2023-03-16T09:28:39.149Z,100480.44
2023-03-16T09:31:17.612Z,100472.03
2023-03-16T09:33:44.875Z,100484.38
2023-03-16T09:36:13.831Z,100483.56
2023-03-16T09:38:41.329Z,100479.09
2023-03-16T09:41:12.643Z,100484.19
2023-03-16T09:43:39.932Z,100467.69
2023-03-16T09:46:06.719Z,100469.66
2023-03-16T09:48:35.842Z,100463.53
2023-03-16T09:51:20.224Z,100467.47
2023-03-16T09:53:48.202Z,100463.03
2023-03-16T09:56:19.673Z,100469.47
2023-03-16T09:58:48.900Z,100471.25
2023-03-16T10:01:23.664Z,100464.91
2023-03-16T10:03:51.189Z,100467.72
2023-03-16T10:06:18.213Z,100466.91
2023-03-16T10:08:54.943Z,100461.59
2023-03-16T10:11:28.061Z,100457.47
2023-03-16T10:13:57.149Z,100458.94
2023-03-16T10:16:29.535Z,100464.13
2023-03-16T10:19:09.821Z,100452.09
2023-03-16T10:21:39.962Z,100456.16
2023-03-16T10:24:25.548Z,100461.91
2023-03-16T10:27:01.777Z,100451.72
2023-03-16T10:29:31.473Z,100441.94
2023-03-16T10:32:04.003Z,100445.19
2023-03-16T10:34:32.277Z,100440.72
2023-03-16T10:37:07.566Z,100436.59
2023-03-16T10:39:45.546Z,100420.38
2023-03-16T10:42:17.940Z,100416.25
2023-03-16T10:44:46.147Z,100418.09
2023-03-16T10:47:33.309Z,100420.19
2023-03-16T10:50:11.902Z,100416.06
2023-03-16T10:52:40.714Z,100417.81
2023-03-16T10:55:10.660Z,100413.03
2023-03-16T10:57:39.414Z,100396.84
2023-03-16T11:00:11.239Z,100404.44
2023-03-16T11:02:42.120Z,100417.59
2023-03-16T11:05:13.544Z,100405.06
2023-03-16T11:07:50.344Z,100403.72
2023-03-16T11:10:29.121Z,100404.06
2023-03-16T11:13:02.613Z,100397.28
2023-03-16T11:15:37.164Z,100386.91
2023-03-16T11:18:04.623Z,100384.94
2023-03-16T11:20:34.156Z,100387.72
2023-03-16T11:23:01.836Z,100383.91
2023-03-16T11:25:41.711Z,100375.00
2023-03-16T11:28:29.001Z,100372.47
2023-03-16T11:31:07.738Z,100369.59
2023-03-16T11:33:35.210Z,100360.75
2023-03-16T11:36:03.715Z,100365.09
2023-03-16T11:38:33.073Z,100354.78
2023-03-16T11:41:19.780Z,100354.34
2023-03-16T11:43:53.096Z,100350.59
2023-03-16T11:46:31.765Z,100349.66
2023-03-16T11:49:03.798Z,100346.69
2023-03-16T11:51:58.703Z,100343.25
2023-03-16T11:54:35.943Z,100349.88
2023-03-16T11:57:11.604Z,100340.00
2023-03-16T11:59:46.270Z,100348.63
2023-03-16T12:02:28.621Z,100349.09
2023-03-16T12:04:58.165Z,100354.91
2023-03-16T12:07:30.768Z,100350.13
2023-03-16T12:10:01.852Z,100359.06
2023-03-16T12:12:51.662Z,100358.41
2023-03-16T12:15:30.963Z,100362.03
2023-03-16T12:18:02.895Z,100356.97
2023-03-16T12:20:37.088Z,100356.97
2023-03-16T12:23:06.320Z,100350.16
2023-03-16T12:25:36.796Z,100349.03
2023-03-16T12:28:05.636Z,100345.09
2023-03-16T12:30:50.934Z,100345.91
2023-03-16T12:33:21.549Z,100347.56
2023-03-16T12:36:00.119Z,100347.25
2023-03-16T12:38:35.500Z,100337.69
2023-03-16T12:41:19.443Z,100342.16
2023-03-16T12:44:04.762Z,100334.56
2023-03-16T12:46:47.860Z,100335.72
2023-03-16T12:49:15.234Z,100343.28
2023-03-16T12:51:43.962Z,100348.91
2023-03-16T12:54:24.408Z,100341.00
2023-03-16T12:56:54.000Z,100331.41
2023-03-16T12:59:22.006Z,100324.97
2023-03-16T13:01:51.123Z,100312.94
2023-03-16T13:04:21.443Z,100311.28
2023-03-16T13:06:50.759Z,100293.63
2023-03-16T13:09:24.497Z,100288.69
2023-03-16T13:11:51.257Z,100292.63
2023-03-16T13:14:33.916Z,100287.19
2023-03-16T13:17:06.612Z,100285.88
2023-03-16T13:19:38.018Z,100284.22
2023-03-16T13:22:33.999Z,100265.19
2023-03-16T13:25:00.693Z,100276.63
2023-03-16T13:27:28.720Z,100275.94
2023-03-16T13:29:57.023Z,100276.75
2023-03-16T13:32:24.619Z,100274.56
2023-03-16T13:34:57.542Z,100270.97
2023-03-16T13:37:24.361Z,100270.75
2023-03-16T13:39:55.772Z,100249.81
2023-03-16T13:42:23.932Z,100257.41
2023-03-16T13:44:54.554Z,100248.34
2023-03-16T13:47:21.649Z,100246.19
2023-03-16T13:49:51.062Z,100242.53
2023-03-16T13:52:24.207Z,100239.56
2023-03-16T13:54:52.720Z,100233.44
2023-03-16T13:57:21.612Z,100234.63
2023-03-16T13:59:48.622Z,100230.63
2023-03-16T14:02:23.431Z,100230.97
2023-03-16T14:04:50.325Z,100229.00
2023-03-16T14:07:18.175Z,100245.00
2023-03-16T14:09:50.002Z,100245.31
2023-03-16T14:12:18.493Z,100246.97
2023-03-16T14:14:50.386Z,100239.19
2023-03-16T14:17:18.435Z,100240.00
2023-03-16T14:19:50.138Z,100238.69
2023-03-16T14:22:18.766Z,100231.75
2023-03-16T14:24:46.567Z,100219.72
2023-03-16T14:27:16.816Z,100225.34
2023-03-16T14:29:44.634Z,100210.28
2023-03-16T14:32:34.510Z,100196.91
2023-03-16T14:35:10.387Z,100212.41
2023-03-16T14:37:37.669Z,100225.06
2023-03-16T14:40:09.026Z,100219.81
2023-03-16T14:42:35.918Z,100221.56
2023-03-16T14:45:06.729Z,100237.59
2023-03-16T14:47:38.692Z,100233.44
2023-03-16T14:50:28.778Z,100224.84
2023-03-16T14:52:56.811Z,100219.06
2023-03-16T14:55:24.610Z,100210.66
2023-03-16T14:57:51.896Z,100215.75
2023-03-16T15:00:19.716Z,100212.63
2023-03-16T15:02:54.579Z,100219.38
2023-03-16T15:05:23.706Z,100213.25
2023-03-16T15:07:54.750Z,100219.69
2023-03-16T15:10:33.755Z,100228.44
2023-03-16T15:13:13.492Z,100235.16
2023-03-16T15:15:44.195Z,100225.09
2023-03-16T15:18:11.101Z,100235.81
2023-03-16T15:20:42.749Z,100234.47
2023-03-16T15:23:17.197Z,100223.56
2023-03-16T15:25:45.255Z,100218.22
2023-03-16T15:28:17.740Z,100210.66
2023-03-16T15:30:52.060Z,100204.41
2023-03-16T15:33:20.063Z,100194.84
2023-03-16T15:35:48.113Z,100189.19
2023-03-16T15:38:16.852Z,100198.56
2023-03-16T15:40:45.702Z,100202.31
2023-03-16T15:43:13.973Z,100193.72
2023-03-16T15:45:40.659Z,100191.22
2023-03-16T15:48:09.142Z,100176.09
2023-03-16T15:50:39.252Z,100179.91
2023-03-16T15:53:09.077Z,100185.69
2023-03-16T15:55:38.658Z,100182.25
2023-03-16T15:58:06.522Z,100180.44
2023-03-16T16:00:38.043Z,100188.25
2023-03-16T16:03:05.850Z,100192.22
2023-03-16T16:05:32.906Z,100185.00
2023-03-16T16:08:00.261Z,100175.00
2023-03-16T16:10:29.099Z,100170.88
2023-03-16T16:12:56.867Z,100165.31
2023-03-16T16:15:29.130Z,100158.41
2023-03-16T16:18:19.805Z,100159.09
2023-03-16T16:20:44.433Z,100155.31
2023-03-16T16:23:11.166Z,100161.41
2023-03-16T16:25:40.447Z,100152.38
2023-03-16T16:28:21.426Z,100155.34
2023-03-16T16:30:48.357Z,100145.44
2023-03-16T16:33:27.201Z,100146.78
2023-03-16T16:35:54.927Z,100129.31
2023-03-16T16:38:22.191Z,100113.31
2023-03-16T16:40:49.155Z,100111.50
2023-03-16T16:43:24.997Z,100104.91
2023-03-16T16:45:51.942Z,100105.44
2023-03-16T16:48:27.595Z,100115.16
2023-03-16T16:50:54.408Z,100119.63
2023-03-16T16:53:21.691Z,100125.75
2023-03-16T16:55:48.743Z,100126.53
2023-03-16T16:58:23.959Z,100132.66
2023-03-16T17:00:56.081Z,100129.03
2023-03-16T17:03:28.450Z,100128.19
2023-03-16T17:05:56.277Z,100142.75
2023-03-16T17:08:23.867Z,100144.72
2023-03-16T17:10:52.040Z,100136.63
2023-03-16T17:13:18.630Z,100141.09
2023-03-16T17:15:45.498Z,100150.66
2023-03-16T17:18:13.463Z,100139.78
2023-03-16T17:20:40.327Z,100127.06
2023-03-16T17:23:24.120Z,100131.34
2023-03-16T17:25:50.869Z,100121.28
2023-03-16T17:28:17.544Z,100135.63
2023-03-16T17:30:45.926Z,100124.09
2023-03-16T17:33:13.929Z,100137.81
2023-03-16T17:35:41.768Z,100121.28
2023-03-16T17:38:26.571Z,100115.16
2023-03-16T17:40:53.460Z,100101.47
2023-03-16T17:43:22.200Z,100104.59
2023-03-16T17:45:50.252Z,100118.94
2023-03-16T17:48:21.144Z,100125.22
2023-03-16T17:50:48.333Z,100114.00
2023-03-16T17:53:15.984Z,100122.28
2023-03-16T17:55:43.178Z,100128.72
2023-03-16T17:58:27.099Z,100122.09
2023-03-16T18:01:03.108Z,100108.22
2023-03-16T18:03:30.826Z,100107.25
2023-03-16T18:05:57.719Z,100119.94
2023-03-16T18:08:28.342Z,100119.44
2023-03-16T18:10:59.470Z,100105.72
2023-03-16T18:13:31.878Z,100112.00
2023-03-16T18:15:58.931Z,100127.97
2023-03-16T18:18:26.896Z,100116.25
2023-03-16T18:20:55.219Z,100111.78
2023-03-16T18:23:23.044Z,100112.13
2023-03-16T18:25:51.181Z,100107.97
2023-03-16T18:28:18.834Z,100102.38
2023-03-16T18:30:47.629Z,100089.53
2023-03-16T18:33:44.188Z,100082.09
2023-03-16T18:36:16.001Z,100082.25
2023-03-16T18:38:43.768Z,100099.81
2023-03-16T18:41:24.652Z,100110.03
2023-03-16T18:43:52.535Z,100133.47
2023-03-16T18:46:30.128Z,100114.50
2023-03-16T18:48:58.233Z,100126.72
2023-03-16T18:51:25.559Z,100117.31
2023-03-16T18:53:52.598Z,100117.81
2023-03-16T18:56:21.560Z,100125.25
2023-03-16T18:58:49.315Z,100116.19
2023-03-16T19:01:26.820Z,100126.75
2023-03-16T19:03:54.207Z,100117.66
2023-03-16T19:06:25.385Z,100113.38
2023-03-16T19:08:52.591Z,100101.78
2023-03-16T19:11:19.512Z,100114.34
2023-03-16T19:13:46.502Z,100107.91
2023-03-16T19:16:17.081Z,100111.72
2023-03-16T19:18:43.809Z,100106.94
2023-03-16T19:21:21.300Z,100100.16
2023-03-16T19:23:54.695Z,100101.78
2023-03-16T19:26:21.311Z,100087.75
2023-03-16T19:28:48.007Z,100088.25
2023-03-16T19:31:35.086Z,100077.03
2023-03-16T19:34:01.812Z,100078.69
2023-03-16T19:36:33.786Z,100080.31
2023-03-16T19:39:02.222Z,100088.41
2023-03-16T19:41:31.124Z,100091.22
2023-03-16T19:44:01.354Z,100083.63
2023-03-16T19:46:28.814Z,100090.75
2023-03-16T19:48:56.219Z,100091.88
2023-03-16T19:51:25.603Z,100093.88
2023-03-16T19:53:52.362Z,100084.09
2023-03-16T19:56:20.042Z,100066.47
2023-03-16T19:58:48.362Z,100068.75
2023-03-16T20:01:17.829Z,100059.50
2023-03-16T20:03:45.341Z,100053.06
2023-03-16T20:06:13.320Z,100054.22
2023-03-16T20:08:40.138Z,100050.44
2023-03-16T20:11:16.377Z,100040.38
2023-03-16T20:13:43.139Z,100049.13
2023-03-16T20:16:22.126Z,100045.50
2023-03-16T20:18:52.452Z,100072.72
2023-03-16T20:21:19.312Z,100078.69
2023-03-16T20:23:46.531Z,100070.44
2023-03-16T20:26:19.774Z,100077.19
2023-03-16T20:28:47.323Z,100067.13
2023-03-16T20:31:24.821Z,100064.47
2023-03-16T20:33:54.485Z,100066.81
2023-03-16T20:36:23.584Z,100072.75
2023-03-16T20:38:50.421Z,100073.06
2023-03-16T20:41:28.132Z,100075.88
2023-03-16T20:43:55.877Z,100084.81
2023-03-16T20:46:25.262Z,100091.88
2023-03-16T20:48:52.190Z,100088.28
2023-03-16T20:51:19.050Z,100082.47
2023-03-16T20:53:46.849Z,100087.91
2023-03-16T20:56:17.719Z,100079.50
2023-03-16T20:58:46.003Z,100086.78
2023-03-16T21:01:17.996Z,100077.22
2023-03-16T21:03:47.576Z,100079.81
2023-03-16T21:06:24.978Z,100081.63
2023-03-16T21:08:52.762Z,100073.56
2023-03-16T21:11:46.139Z,100081.47
2023-03-16T21:14:17.878Z,100081.63
2023-03-16T21:16:44.991Z,100080.00
2023-03-16T21:19:21.907Z,100064.66
2023-03-16T21:21:48.895Z,100069.78
2023-03-16T21:24:17.494Z,100068.44
2023-03-16T21:26:45.178Z,100060.84
2023-03-16T21:29:14.789Z,100060.38
2023-03-16T21:31:41.603Z,100068.28
2023-03-16T21:34:37.477Z,100071.09
2023-03-16T21:37:12.325Z,100074.22
2023-03-16T21:39:39.524Z,100080.66
2023-03-16T21:42:06.750Z,100087.41
2023-03-16T21:44:33.625Z,100095.81
2023-03-16T21:47:00.524Z,100095.03
2023-03-16T21:49:27.156Z,100092.03
2023-03-16T21:51:54.018Z,100089.56
2023-03-16T21:54:20.641Z,100091.81
2023-03-16T21:56:48.147Z,100099.09
2023-03-16T21:59:14.786Z,100087.72
2023-03-16T22:01:58.301Z,100102.06
2023-03-16T22:04:27.640Z,100101.53
2023-03-16T22:06:54.278Z,100088.34
2023-03-16T22:09:22.747Z,100093.47
2023-03-16T22:11:49.629Z,100091.00
2023-03-16T22:14:16.298Z,100086.03
2023-03-16T22:16:43.153Z,100089.69
2023-03-16T22:19:11.716Z,100077.94
2023-03-16T22:21:40.637Z,100077.78
2023-03-16T22:24:13.091Z,100070.53
2023-03-16T22:26:40.208Z,100084.06
2023-03-16T22:29:28.539Z,100083.56
2023-03-16T22:31:59.702Z,100089.47
2023-03-16T22:34:32.382Z,100090.81
2023-03-16T22:37:00.832Z,100077.78
2023-03-16T22:39:28.454Z,100082.88
2023-03-16T22:41:55.090Z,100084.06
2023-03-16T22:44:23.111Z,100076.78
2023-03-16T22:46:50.468Z,100075.28
2023-03-16T22:49:25.007Z,100079.59
2023-03-16T22:51:53.642Z,100081.88
2023-03-16T22:54:23.363Z,100079.06
2023-03-16T22:56:50.289Z,100077.41
2023-03-16T22:59:19.115Z,100074.97
2023-03-16T23:01:48.751Z,100085.03
2023-03-16T23:04:20.226Z,100087.00
2023-03-16T23:06:48.333Z,100088.16
2023-03-16T23:09:16.351Z,100084.50
2023-03-16T23:11:44.096Z,100078.91
2023-03-16T23:14:14.877Z,100083.69
2023-03-16T23:16:42.295Z,100088.81
2023-03-16T23:19:24.347Z,100087.97
2023-03-16T23:21:52.582Z,100095.56
2023-03-16T23:24:19.251Z,100098.38
2023-03-16T23:26:45.959Z,100086.31
2023-03-16T23:29:13.703Z,100089.78
2023-03-16T23:31:40.285Z,100083.66
2023-03-16T23:34:13.374Z,100072.75
2023-03-16T23:36:40.041Z,100083.97
2023-03-16T23:39:07.503Z,100087.13
2023-03-16T23:41:34.993Z,100087.97
2023-03-16T23:44:02.228Z,100090.25
2023-03-16T23:46:29.489Z,100093.06
2023-03-16T23:48:57.388Z,100087.75
2023-03-16T23:51:31.568Z,100091.38
2023-03-16T23:53:58.522Z,100089.25
2023-03-16T23:56:26.430Z,100094.53
2023-03-16T23:58:53.620Z,100086.13
